createdAt,value
2022-12-29T00:00:40.516Z,81.93
2022-12-29T00:03:08.488Z,81.95
2022-12-29T00:05:40.309Z,81.93
2022-12-29T00:08:08.063Z,81.81
2022-12-29T00:10:37.253Z,81.75
2022-12-29T00:13:22.955Z,81.88
2022-12-29T00:15:50.808Z,81.88
2022-12-29T00:18:18.749Z,81.88
2022-12-29T00:21:03.938Z,81.80
2022-12-29T00:23:49.400Z,81.92
2022-12-29T00:26:37.078Z,82.03
2022-12-29T00:29:22.471Z,81.83
2022-12-29T00:32:07.728Z,81.84
2022-12-29T00:34:52.971Z,81.80
2022-12-29T00:37:41.290Z,81.72
2022-12-29T00:40:27.709Z,82.00
2022-12-29T00:43:14.444Z,81.81
2022-12-29T00:45:42.865Z,81.78
2022-12-29T00:48:10.739Z,81.80
2022-12-29T00:50:37.836Z,81.96
2022-12-29T00:53:05.718Z,81.77
2022-12-29T00:55:33.645Z,81.77
2022-12-29T00:58:03.372Z,81.66
2022-12-29T01:00:31.322Z,81.78
2022-12-29T01:02:59.395Z,81.90
2022-12-29T01:05:27.473Z,81.71
2022-12-29T01:07:55.359Z,81.64
2022-12-29T01:10:22.211Z,81.62
2022-12-29T01:12:51.280Z,81.72
2022-12-29T01:15:20.716Z,81.66
2022-12-29T01:17:49.914Z,81.63
2022-12-29T01:20:18.256Z,81.54
2022-12-29T01:22:46.136Z,81.61
2022-12-29T01:25:14.010Z,81.65
2022-12-29T01:27:42.084Z,81.66
2022-12-29T01:30:11.357Z,81.54
2022-12-29T01:32:40.559Z,81.62
2022-12-29T01:35:09.066Z,81.62
2022-12-29T01:37:37.020Z,81.55
2022-12-29T01:40:05.677Z,81.51
2022-12-29T01:42:33.875Z,81.58
2022-12-29T01:45:10.453Z,81.54
2022-12-29T01:47:43.969Z,81.19
2022-12-29T01:50:17.692Z,81.41
2022-12-29T01:52:53.348Z,81.49
2022-12-29T01:55:22.206Z,81.47
2022-12-29T01:57:52.974Z,81.64
2022-12-29T02:00:21.542Z,81.46
2022-12-29T02:02:54.245Z,81.30
2022-12-29T02:05:27.220Z,81.43
2022-12-29T02:07:55.929Z,81.65
2022-12-29T02:10:27.800Z,81.43
2022-12-29T02:12:57.332Z,81.37
2022-12-29T02:15:35.315Z,81.62
2022-12-29T02:18:20.953Z,81.61
2022-12-29T02:21:38.371Z,81.52
2022-12-29T02:24:35.523Z,81.55
2022-12-29T02:27:31.198Z,81.51
2022-12-29T02:30:14.091Z,81.29
2022-12-29T02:32:52.358Z,81.52
2022-12-29T02:35:31.836Z,81.30
2022-12-29T02:38:09.810Z,81.35
2022-12-29T02:40:43.136Z,81.28
2022-12-29T02:43:18.351Z,81.24
2022-12-29T02:45:52.672Z,81.29
2022-12-29T02:48:30.476Z,81.61
2022-12-29T02:51:04.002Z,81.50
2022-12-29T02:53:51.715Z,81.43
2022-12-29T02:56:20.814Z,81.04
2022-12-29T02:58:48.750Z,81.42
2022-12-29T03:04:40.543Z,81.17
2022-12-29T03:07:16.941Z,81.24
2022-12-29T03:09:54.733Z,81.47
2022-12-29T03:12:49.199Z,81.12
2022-12-29T03:15:41.261Z,81.37
2022-12-29T03:18:17.186Z,81.43
2022-12-29T03:20:54.772Z,81.38
2022-12-29T03:23:27.050Z,81.16
2022-12-29T03:25:58.271Z,81.13
2022-12-29T03:28:32.962Z,81.30
2022-12-29T03:31:02.520Z,81.45
2022-12-29T03:33:32.509Z,81.04
2022-12-29T03:36:07.082Z,81.10
2022-12-29T03:38:41.952Z,81.08
2022-12-29T03:41:13.855Z,81.18
2022-12-29T03:43:41.930Z,81.14
2022-12-29T03:46:09.798Z,81.06
2022-12-29T03:48:40.030Z,80.95
2022-12-29T03:51:09.396Z,81.11
2022-12-29T03:53:37.647Z,80.99
2022-12-29T03:56:05.853Z,81.23
2022-12-29T03:58:34.923Z,81.21
2022-12-29T04:01:09.498Z,81.07
2022-12-29T04:03:39.507Z,81.28
2022-12-29T04:06:09.654Z,81.17
2022-12-29T04:08:47.565Z,81.07
2022-12-29T04:11:15.473Z,81.13
2022-12-29T04:13:43.885Z,80.97
2022-12-29T04:16:16.186Z,80.89
2022-12-29T04:18:44.308Z,80.94
2022-12-29T04:21:13.516Z,81.02
2022-12-29T04:23:43.861Z,81.28
2022-12-29T04:26:13.534Z,80.94
2022-12-29T04:28:52.368Z,81.01
2022-12-29T04:31:39.855Z,81.16
2022-12-29T04:34:09.151Z,81.09
2022-12-29T04:36:39.843Z,81.30
2022-12-29T04:39:08.196Z,80.76
2022-12-29T04:41:37.193Z,81.18
2022-12-29T04:44:10.661Z,81.03
2022-12-29T04:47:07.407Z,80.73
2022-12-29T04:49:52.522Z,80.86
2022-12-29T04:52:36.842Z,80.98
2022-12-29T04:55:05.783Z,80.88
2022-12-29T04:57:33.916Z,80.70
2022-12-29T05:00:02.423Z,81.04
2022-12-29T05:02:30.525Z,81.00
2022-12-29T05:04:58.746Z,80.80
2022-12-29T05:07:27.851Z,80.76
2022-12-29T05:09:58.175Z,80.71
2022-12-29T05:12:26.207Z,81.08
2022-12-29T05:15:00.650Z,81.12
2022-12-29T05:17:28.729Z,80.96
2022-12-29T05:19:57.130Z,80.65
2022-12-29T05:22:25.840Z,80.82
2022-12-29T05:24:55.760Z,80.76
2022-12-29T05:27:26.124Z,81.03
2022-12-29T05:30:02.138Z,80.68
2022-12-29T05:32:29.975Z,80.65
2022-12-29T05:34:58.816Z,80.71
2022-12-29T05:37:27.117Z,81.07
2022-12-29T05:39:55.026Z,80.86
2022-12-29T05:42:23.048Z,80.94
2022-12-29T05:45:15.599Z,80.92
2022-12-29T05:48:07.228Z,80.97
2022-12-29T05:50:54.242Z,80.99
2022-12-29T05:53:26.955Z,80.97
2022-12-29T05:55:54.896Z,80.90
2022-12-29T05:58:22.930Z,81.05
2022-12-29T06:00:53.158Z,80.89
2022-12-29T06:03:21.206Z,81.00
2022-12-29T06:05:49.195Z,80.61
2022-12-29T06:08:18.047Z,80.92
2022-12-29T06:11:11.457Z,80.99
2022-12-29T06:13:43.766Z,80.63
2022-12-29T06:16:14.943Z,80.59
2022-12-29T06:18:43.837Z,80.80
2022-12-29T06:21:12.214Z,80.91
2022-12-29T06:23:40.145Z,80.90
2022-12-29T06:26:08.063Z,80.82
2022-12-29T06:28:35.952Z,80.63
2022-12-29T06:31:04.209Z,80.83
2022-12-29T06:33:33.379Z,80.51
2022-12-29T06:36:01.598Z,80.85
2022-12-29T06:38:31.659Z,80.92
2022-12-29T06:41:00.882Z,80.59
2022-12-29T06:44:07.083Z,80.87
2022-12-29T06:49:44.477Z,80.91
2022-12-29T06:52:13.324Z,80.83
2022-12-29T06:54:42.079Z,80.49
2022-12-29T06:57:09.990Z,80.81
2022-12-29T06:59:37.913Z,80.83
2022-12-29T07:02:06.527Z,80.57
2022-12-29T07:04:34.467Z,80.70
2022-12-29T07:07:03.876Z,80.45
2022-12-29T07:09:31.762Z,80.75
2022-12-29T07:11:59.589Z,80.85
2022-12-29T07:14:27.539Z,80.63
2022-12-29T07:16:55.429Z,80.24
2022-12-29T07:19:23.422Z,80.53
2022-12-29T07:21:51.195Z,80.90
2022-12-29T07:24:22.878Z,80.48
2022-12-29T07:26:50.885Z,80.58
2022-12-29T07:29:18.675Z,80.54
2022-12-29T07:31:46.669Z,80.50
2022-12-29T07:34:14.545Z,80.72
2022-12-29T07:36:42.600Z,80.80
2022-12-29T07:39:10.488Z,80.79
2022-12-29T07:41:39.771Z,80.51
2022-12-29T07:44:12.585Z,80.51
2022-12-29T07:47:00.810Z,80.80
2022-12-29T07:49:30.240Z,80.76
2022-12-29T07:51:58.040Z,80.45
2022-12-29T07:54:28.625Z,80.57
2022-12-29T07:56:58.545Z,80.42
2022-12-29T07:59:26.442Z,80.52
2022-12-29T08:01:54.709Z,80.76
2022-12-29T08:04:22.609Z,80.52
2022-12-29T08:06:50.809Z,80.73
2022-12-29T08:09:22.616Z,80.71
2022-12-29T08:11:52.382Z,80.76
2022-12-29T08:14:21.731Z,80.63
2022-12-29T08:16:49.651Z,80.68
2022-12-29T08:19:17.530Z,80.68
2022-12-29T08:21:45.368Z,80.92
2022-12-29T08:24:13.231Z,80.36
2022-12-29T08:26:41.158Z,80.52
2022-12-29T08:29:09.034Z,80.64
2022-12-29T08:31:38.659Z,80.86
2022-12-29T08:34:06.797Z,81.19
2022-12-29T08:36:34.708Z,80.60
2022-12-29T08:39:02.554Z,80.67
2022-12-29T08:41:30.419Z,80.42
2022-12-29T08:43:58.408Z,80.77
2022-12-29T08:46:26.452Z,80.69
2022-12-29T08:48:56.088Z,80.77
2022-12-29T08:51:25.091Z,80.77
2022-12-29T08:53:54.101Z,80.70
2022-12-29T08:56:24.633Z,80.76
2022-12-29T08:58:55.860Z,80.81
2022-12-29T09:01:24.590Z,80.48
2022-12-29T09:06:41.873Z,81.21
2022-12-29T09:09:09.805Z,81.12
2022-12-29T09:11:37.727Z,80.93
2022-12-29T09:14:05.700Z,80.99
2022-12-29T09:16:33.821Z,81.15
2022-12-29T09:19:02.171Z,81.08
2022-12-29T09:21:30.180Z,81.12
2022-12-29T09:23:59.386Z,81.33
2022-12-29T09:26:27.259Z,81.21
2022-12-29T09:28:55.076Z,81.21
2022-12-29T09:31:23.366Z,81.00
2022-12-29T09:33:51.364Z,81.09
2022-12-29T09:36:19.132Z,81.28
2022-12-29T09:38:47.097Z,81.39
2022-12-29T09:41:25.605Z,81.21
2022-12-29T09:44:19.521Z,81.50
2022-12-29T09:46:51.381Z,81.21
2022-12-29T09:49:28.124Z,81.41
2022-12-29T09:52:01.430Z,81.22
2022-12-29T09:54:51.497Z,81.48
2022-12-29T09:57:28.561Z,81.31
2022-12-29T10:00:01.834Z,81.56
2022-12-29T10:02:36.255Z,81.42
2022-12-29T10:05:04.997Z,81.62
2022-12-29T10:07:42.024Z,81.70
2022-12-29T10:10:22.742Z,81.84
2022-12-29T10:13:03.457Z,81.69
2022-12-29T10:15:42.802Z,81.76
2022-12-29T10:18:34.556Z,81.63
2022-12-29T10:21:10.872Z,81.64
2022-12-29T10:23:44.745Z,81.88
2022-12-29T10:26:16.156Z,81.83
2022-12-29T10:28:50.380Z,81.71
2022-12-29T10:31:22.186Z,82.02
2022-12-29T10:33:54.143Z,82.08
2022-12-29T10:36:29.561Z,81.81
2022-12-29T10:39:08.545Z,81.89
2022-12-29T10:41:43.223Z,81.98
2022-12-29T10:44:18.002Z,82.17
2022-12-29T10:46:50.312Z,82.32
2022-12-29T10:49:22.295Z,82.26
2022-12-29T10:51:53.757Z,82.39
2022-12-29T10:54:28.800Z,82.20
2022-12-29T10:57:02.503Z,82.14
2022-12-29T10:59:36.175Z,81.94
2022-12-29T11:02:28.309Z,82.31
2022-12-29T11:05:04.719Z,82.43
2022-12-29T11:07:33.541Z,82.44
2022-12-29T11:10:20.728Z,82.15
2022-12-29T11:13:00.033Z,82.39
2022-12-29T11:15:29.626Z,82.31
2022-12-29T11:18:00.723Z,82.21
2022-12-29T11:20:38.388Z,82.48
2022-12-29T11:23:22.789Z,82.38
2022-12-29T11:26:08.576Z,82.42
2022-12-29T11:28:36.767Z,82.48
2022-12-29T11:31:08.733Z,82.67
2022-12-29T11:33:38.753Z,82.27
2022-12-29T11:36:09.978Z,82.59
2022-12-29T11:38:41.430Z,82.66
2022-12-29T11:41:15.532Z,82.41
2022-12-29T11:43:45.906Z,82.70
2022-12-29T11:46:19.664Z,82.69
2022-12-29T11:48:49.323Z,82.46
2022-12-29T11:51:25.768Z,82.49
2022-12-29T11:53:57.317Z,82.77
2022-12-29T11:56:40.367Z,82.54
2022-12-29T11:59:41.995Z,82.70
2022-12-29T12:02:43.673Z,82.36
2022-12-29T12:05:32.493Z,82.71
2022-12-29T12:08:07.562Z,82.52
2022-12-29T12:10:43.874Z,82.42
2022-12-29T12:13:22.152Z,82.71
2022-12-29T12:15:57.482Z,82.53
2022-12-29T12:18:36.565Z,82.67
2022-12-29T12:21:12.734Z,82.36
2022-12-29T12:23:56.302Z,82.37
2022-12-29T12:26:32.386Z,82.58
2022-12-29T12:29:03.056Z,82.46
2022-12-29T12:31:46.042Z,82.50
2022-12-29T12:34:22.052Z,82.40
2022-12-29T12:37:01.464Z,82.81
2022-12-29T12:39:41.483Z,82.36
2022-12-29T12:42:25.572Z,82.56
2022-12-29T12:45:06.242Z,82.44
2022-12-29T12:47:49.991Z,82.38
2022-12-29T12:50:43.226Z,82.58
2022-12-29T12:53:42.319Z,82.28
2022-12-29T12:56:25.956Z,82.42
2022-12-29T12:59:08.975Z,82.35
2022-12-29T13:01:44.981Z,82.36
2022-12-29T13:04:30.771Z,82.14
2022-12-29T13:07:12.585Z,82.51
2022-12-29T13:09:58.369Z,82.46
2022-12-29T13:12:38.195Z,82.55
2022-12-29T13:15:21.187Z,82.50
2022-12-29T13:17:56.787Z,82.31
2022-12-29T13:20:33.745Z,82.32
2022-12-29T13:23:10.287Z,81.95
2022-12-29T13:25:45.100Z,82.11
2022-12-29T13:28:19.018Z,82.00
2022-12-29T13:30:54.865Z,81.92
2022-12-29T13:33:31.157Z,82.29
2022-12-29T13:36:06.011Z,82.33
2022-12-29T13:38:41.058Z,82.01
2022-12-29T13:41:12.759Z,82.13
2022-12-29T13:43:44.283Z,82.23
2022-12-29T13:46:15.755Z,82.15
2022-12-29T13:48:51.052Z,81.84
2022-12-29T13:51:25.665Z,81.94
2022-12-29T13:54:11.918Z,81.56
2022-12-29T13:56:43.716Z,81.90
2022-12-29T13:59:22.385Z,82.02
2022-12-29T14:01:58.884Z,81.83
2022-12-29T14:04:33.685Z,81.94
2022-12-29T14:07:05.147Z,82.11
2022-12-29T14:09:43.711Z,81.92
2022-12-29T14:12:31.340Z,81.64
2022-12-29T14:15:25.341Z,82.08
2022-12-29T14:18:14.143Z,81.97
2022-12-29T14:20:51.838Z,82.02
2022-12-29T14:23:29.996Z,81.57
2022-12-29T14:26:13.180Z,81.85
2022-12-29T14:28:42.922Z,81.77
2022-12-29T14:31:42.146Z,81.40
2022-12-29T14:34:30.250Z,81.58
2022-12-29T14:37:00.664Z,81.64
2022-12-29T14:39:38.783Z,81.63
2022-12-29T14:42:13.902Z,81.81
2022-12-29T14:44:50.343Z,81.55
2022-12-29T14:47:22.418Z,81.85
2022-12-29T14:49:50.941Z,81.55
2022-12-29T14:52:23.435Z,81.67
2022-12-29T14:54:56.239Z,81.63
2022-12-29T14:57:34.047Z,81.54
2022-12-29T15:00:09.966Z,81.48
2022-12-29T15:02:43.227Z,81.69
2022-12-29T15:05:29.510Z,81.38
2022-12-29T15:07:59.288Z,81.76
2022-12-29T15:10:33.978Z,81.46
2022-12-29T15:13:07.292Z,81.65
2022-12-29T15:15:40.232Z,81.55
2022-12-29T15:18:28.322Z,81.34
2022-12-29T15:20:59.022Z,81.51
2022-12-29T15:23:27.475Z,81.59
2022-12-29T15:25:58.909Z,81.55
2022-12-29T15:28:38.129Z,81.44
2022-12-29T15:31:08.072Z,81.69
2022-12-29T15:33:41.668Z,81.70
2022-12-29T15:36:14.383Z,81.56
2022-12-29T15:38:42.226Z,81.43
2022-12-29T15:41:55.470Z,81.59
2022-12-29T15:44:30.538Z,81.40
2022-12-29T15:46:58.916Z,81.61
2022-12-29T15:49:32.038Z,81.52
2022-12-29T15:52:01.148Z,81.54
2022-12-29T15:54:33.224Z,81.57
2022-12-29T15:57:01.154Z,81.58
2022-12-29T15:59:32.889Z,81.67
2022-12-29T16:02:08.588Z,81.54
2022-12-29T16:05:01.704Z,81.42
2022-12-29T16:07:35.797Z,81.35
2022-12-29T16:10:07.811Z,81.34
2022-12-29T16:12:39.083Z,81.46
2022-12-29T16:15:14.931Z,81.38
2022-12-29T16:17:48.734Z,81.46
2022-12-29T16:20:20.928Z,81.41
2022-12-29T16:22:51.626Z,81.63
2022-12-29T16:25:24.852Z,81.41
2022-12-29T16:27:54.414Z,81.34
2022-12-29T16:30:32.895Z,81.54
2022-12-29T16:33:04.252Z,81.34
2022-12-29T16:35:41.836Z,80.86
2022-12-29T16:38:16.585Z,81.31
2022-12-29T16:40:55.435Z,81.30
2022-12-29T16:43:25.779Z,81.20
2022-12-29T16:46:23.929Z,81.52
2022-12-29T16:48:54.496Z,81.37
2022-12-29T16:51:32.233Z,81.26
2022-12-29T16:54:01.131Z,81.27
2022-12-29T16:56:32.493Z,81.43
2022-12-29T16:59:05.378Z,81.22
2022-12-29T17:01:38.006Z,81.36
2022-12-29T17:04:08.703Z,81.38
2022-12-29T17:06:36.519Z,80.83
2022-12-29T17:09:18.134Z,81.08
2022-12-29T17:12:04.971Z,81.19
2022-12-29T17:14:42.364Z,81.32
2022-12-29T17:17:21.370Z,81.11
2022-12-29T17:19:52.714Z,81.22
2022-12-29T17:22:25.628Z,81.22
2022-12-29T17:24:54.547Z,81.06
2022-12-29T17:27:29.613Z,81.24
2022-12-29T17:30:00.780Z,81.14
2022-12-29T17:32:30.525Z,81.15
2022-12-29T17:34:58.501Z,81.12
2022-12-29T17:37:35.865Z,81.10
2022-12-29T17:40:05.465Z,81.07
2022-12-29T17:42:34.820Z,81.29
2022-12-29T17:45:03.770Z,80.98
2022-12-29T17:47:33.126Z,80.98
2022-12-29T17:50:01.680Z,80.95
2022-12-29T17:52:29.848Z,81.12
2022-12-29T17:55:24.791Z,80.80
2022-12-29T17:57:54.002Z,80.85
2022-12-29T18:00:24.113Z,80.84
2022-12-29T18:02:54.435Z,81.10
2022-12-29T18:05:24.971Z,80.72
2022-12-29T18:07:54.335Z,80.89
2022-12-29T18:10:23.678Z,81.00
2022-12-29T18:12:53.568Z,80.93
2022-12-29T18:15:23.584Z,81.01
2022-12-29T18:17:59.383Z,80.97
2022-12-29T18:20:27.517Z,80.82
2022-12-29T18:22:55.347Z,80.66
2022-12-29T18:25:26.857Z,80.75
2022-12-29T18:27:54.902Z,81.01
2022-12-29T18:30:22.835Z,80.77
2022-12-29T18:32:51.054Z,80.60
2022-12-29T18:35:39.245Z,80.91
2022-12-29T18:38:07.179Z,80.90
2022-12-29T18:40:35.872Z,80.56
2022-12-29T18:43:04.027Z,80.75
2022-12-29T18:45:33.649Z,80.79
2022-12-29T18:48:01.671Z,80.77
2022-12-29T18:50:30.950Z,80.74
2022-12-29T18:53:03.809Z,80.79
2022-12-29T18:55:32.323Z,80.83
2022-12-29T18:58:00.664Z,80.71
2022-12-29T19:00:28.516Z,80.93
2022-12-29T19:02:56.544Z,80.62
2022-12-29T19:05:26.781Z,80.33
2022-12-29T19:07:56.699Z,80.64
2022-12-29T19:10:26.275Z,80.41
2022-12-29T19:12:54.531Z,80.68
2022-12-29T19:15:25.622Z,80.54
2022-12-29T19:18:32.523Z,80.44
2022-12-29T19:20:43.913Z,80.87
2022-12-29T19:23:14.784Z,80.50
2022-12-29T19:25:43.194Z,80.72
2022-12-29T19:28:18.511Z,80.41
2022-12-29T19:30:51.855Z,80.51
2022-12-29T19:33:23.536Z,80.76
2022-12-29T19:35:52.793Z,80.32
2022-12-29T19:38:22.027Z,80.45
2022-12-29T19:40:51.794Z,80.52
2022-12-29T19:43:20.053Z,80.77
2022-12-29T19:45:47.901Z,80.61
2022-12-29T19:48:19.186Z,80.50
2022-12-29T19:50:47.496Z,80.74
2022-12-29T19:53:15.937Z,80.29
2022-12-29T19:55:46.030Z,80.15
2022-12-29T19:58:15.247Z,80.80
2022-12-29T20:00:44.233Z,80.34
2022-12-29T20:03:12.376Z,80.50
2022-12-29T20:05:41.291Z,80.65
2022-12-29T20:08:09.232Z,80.53
2022-12-29T20:10:37.080Z,80.47
2022-12-29T20:13:06.501Z,80.81
2022-12-29T20:15:34.373Z,80.52
2022-12-29T20:18:17.580Z,80.17
2022-12-29T20:20:45.631Z,79.96
2022-12-29T20:23:13.414Z,80.70
2022-12-29T20:25:45.647Z,80.65
2022-12-29T20:28:16.674Z,80.21
2022-12-29T20:30:45.163Z,80.71
2022-12-29T20:33:13.174Z,80.45
2022-12-29T20:35:41.107Z,80.62
2022-12-29T20:38:09.237Z,80.58
2022-12-29T20:40:44.106Z,80.59
2022-12-29T20:43:17.362Z,80.11
2022-12-29T20:45:46.011Z,80.47
2022-12-29T20:48:14.092Z,80.18
2022-12-29T20:50:42.093Z,80.31
2022-12-29T20:53:11.700Z,80.41
2022-12-29T20:55:41.250Z,80.45
2022-12-29T20:58:25.358Z,80.27
2022-12-29T21:00:56.177Z,80.32
2022-12-29T21:03:24.803Z,79.79
2022-12-29T21:05:55.478Z,79.92
2022-12-29T21:08:23.588Z,80.35
2022-12-29T21:10:52.481Z,80.27
2022-12-29T21:13:21.118Z,80.21
2022-12-29T21:15:49.437Z,80.43
2022-12-29T21:18:18.761Z,79.96
2022-12-29T21:20:55.288Z,79.85
2022-12-29T21:23:23.310Z,80.20
2022-12-29T21:25:52.924Z,79.84
2022-12-29T21:28:21.701Z,80.08
2022-12-29T21:30:50.319Z,80.18
2022-12-29T21:33:20.924Z,79.71
2022-12-29T21:35:49.425Z,79.85
2022-12-29T21:38:17.332Z,79.79
2022-12-29T21:40:45.225Z,79.88
2022-12-29T21:43:13.418Z,79.94
2022-12-29T21:45:40.446Z,79.79
2022-12-29T21:48:25.167Z,79.77
2022-12-29T21:51:14.403Z,79.49
2022-12-29T21:53:44.988Z,79.55
2022-12-29T21:56:15.075Z,80.19
2022-12-29T21:59:02.153Z,80.08
2022-12-29T22:01:49.339Z,79.65
2022-12-29T22:04:36.733Z,80.02
2022-12-29T22:07:25.826Z,79.86
2022-12-29T22:10:11.867Z,80.07
2022-12-29T22:12:57.692Z,79.75
2022-12-29T22:15:26.107Z,80.10
2022-12-29T22:17:55.898Z,79.77
2022-12-29T22:20:27.381Z,79.99
2022-12-29T22:22:57.047Z,79.54
2022-12-29T22:25:25.031Z,80.17
2022-12-29T22:27:58.759Z,79.83
2022-12-29T22:30:27.712Z,79.41
2022-12-29T22:32:56.602Z,79.51
2022-12-29T22:35:24.818Z,79.97
2022-12-29T22:37:52.811Z,80.00
2022-12-29T22:40:22.038Z,79.47
2022-12-29T22:42:50.137Z,79.35
2022-12-29T22:45:18.024Z,79.47
2022-12-29T22:47:45.926Z,79.53
2022-12-29T22:50:13.784Z,79.70
2022-12-29T22:52:41.675Z,79.30
2022-12-29T22:55:10.097Z,79.77
2022-12-29T22:57:39.240Z,79.58
2022-12-29T23:00:10.393Z,79.36
2022-12-29T23:06:37.265Z,79.45
2022-12-29T23:09:06.459Z,79.11
2022-12-29T23:11:34.787Z,79.76
2022-12-29T23:14:02.773Z,79.40
2022-12-29T23:16:30.731Z,80.06
2022-12-29T23:18:58.625Z,79.64
2022-12-29T23:21:26.487Z,79.71
2022-12-29T23:23:56.114Z,79.89
2022-12-29T23:26:26.356Z,79.07
2022-12-29T23:28:59.942Z,79.56
2022-12-29T23:31:29.857Z,79.23
2022-12-29T23:33:57.817Z,79.65
2022-12-29T23:36:25.828Z,79.64
2022-12-29T23:38:55.626Z,79.21
2022-12-29T23:41:23.996Z,79.28
2022-12-29T23:43:51.886Z,79.23
2022-12-29T23:46:22.556Z,79.30
2022-12-29T23:48:50.763Z,79.00
2022-12-29T23:51:19.328Z,79.26
2022-12-29T23:53:47.527Z,79.11
2022-12-29T23:56:19.492Z,79.52
2022-12-29T23:58:47.994Z,79.04
